sensor_id;sensor_type;location;lat;lon;timestamp;pressure;altitude;pressure_sealevel;temperature;humidity
19783;BME280;10051;40.294;-3.754;2023-06-14T00:01:02;93916.69;;;21.01;58.36
19783;BME280;10051;40.294;-3.754;2023-06-14T00:03:28;93951.75;;;21.35;58.09
19783;BME280;10051;40.294;-3.754;2023-06-14T00:05:54;93893.34;;;20.98;58.18
19783;BME280;10051;40.294;-3.754;2023-06-14T00:08:20;93943.66;;;21.12;58.59
19783;BME280;10051;40.294;-3.754;2023-06-14T00:10:48;93862.22;;;20.50;59.24
19783;BME280;10051;40.294;-3.754;2023-06-14T00:13:14;93942.44;;;20.90;59.37
19783;BME280;10051;40.294;-3.754;2023-06-14T00:15:40;93900.50;;;20.58;59.28
19783;BME280;10051;40.294;-3.754;2023-06-14T00:18:06;93947.22;;;21.00;59.56
19783;BME280;10051;40.294;-3.754;2023-06-14T00:20:32;93965.88;;;21.16;59.63
19783;BME280;10051;40.294;-3.754;2023-06-14T00:23:01;93969.25;;;21.13;59.90
19783;BME280;10051;40.294;-3.754;2023-06-14T00:25:28;93935.97;;;20.91;60.22
19783;BME280;10051;40.294;-3.754;2023-06-14T00:27:55;93931.59;;;20.83;60.65
19783;BME280;10051;40.294;-3.754;2023-06-14T00:30:21;93971.16;;;21.13;60.47
19783;BME280;10051;40.294;-3.754;2023-06-14T00:32:53;93963.97;;;20.97;60.61
19783;BME280;10051;40.294;-3.754;2023-06-14T00:35:18;93971.16;;;20.77;61.07
19783;BME280;10051;40.294;-3.754;2023-06-14T00:37:44;93924.31;;;20.31;62.03
19783;BME280;10051;40.294;-3.754;2023-06-14T00:40:10;93958.41;;;20.54;62.97
19783;BME280;10051;40.294;-3.754;2023-06-14T00:42:35;93928.38;;;20.41;63.30
19783;BME280;10051;40.294;-3.754;2023-06-14T00:45:01;93945.50;;;20.56;63.18
19783;BME280;10051;40.294;-3.754;2023-06-14T00:47:27;93974.50;;;20.58;63.87
19783;BME280;10051;40.294;-3.754;2023-06-14T00:49:56;93839.81;;;19.71;63.77
19783;BME280;10051;40.294;-3.754;2023-06-14T00:52:22;93965.97;;;20.68;63.55
19783;BME280;10051;40.294;-3.754;2023-06-14T00:54:49;93965.97;;;20.68;63.75
19783;BME280;10051;40.294;-3.754;2023-06-14T00:57:15;93955.16;;;20.45;63.77
19783;BME280;10051;40.294;-3.754;2023-06-14T00:59:46;93933.72;;;20.41;63.38
19783;BME280;10051;40.294;-3.754;2023-06-14T01:02:13;93916.25;;;20.28;63.16
19783;BME280;10051;40.294;-3.754;2023-06-14T01:04:41;93882.75;;;20.14;63.44
19783;BME280;10051;40.294;-3.754;2023-06-14T01:07:26;93921.31;;;20.33;62.94
19783;BME280;10051;40.294;-3.754;2023-06-14T01:10:05;93973.56;;;20.66;63.43
19783;BME280;10051;40.294;-3.754;2023-06-14T01:15:30;93967.47;;;20.49;63.12
19783;BME280;10051;40.294;-3.754;2023-06-14T01:17:56;93964.78;;;20.33;63.06
19783;BME280;10051;40.294;-3.754;2023-06-14T01:20:30;93964.03;;;20.17;63.48
19783;BME280;10051;40.294;-3.754;2023-06-14T01:22:57;93964.53;;;19.90;65.45
19783;BME280;10051;40.294;-3.754;2023-06-14T01:25:23;93977.91;;;19.78;65.97
19783;BME280;10051;40.294;-3.754;2023-06-14T01:27:53;93969.94;;;19.66;66.18
19783;BME280;10051;40.294;-3.754;2023-06-14T01:30:21;93947.56;;;19.54;66.12
19783;BME280;10051;40.294;-3.754;2023-06-14T01:32:50;93991.66;;;19.80;66.04
19783;BME280;10051;40.294;-3.754;2023-06-14T01:35:17;93912.50;;;19.24;65.95
19783;BME280;10051;40.294;-3.754;2023-06-14T01:37:43;93935.38;;;19.25;66.54
19783;BME280;10051;40.294;-3.754;2023-06-14T01:40:13;93867.09;;;18.79;66.55
19783;BME280;10051;40.294;-3.754;2023-06-14T01:42:40;93982.53;;;19.65;66.27
19783;BME280;10051;40.294;-3.754;2023-06-14T01:45:07;93993.91;;;19.78;66.40
19783;BME280;10051;40.294;-3.754;2023-06-14T01:47:33;93994.31;;;19.93;66.04
19783;BME280;10051;40.294;-3.754;2023-06-14T01:50:02;93982.56;;;19.81;66.38
19783;BME280;10051;40.294;-3.754;2023-06-14T01:52:27;93996.31;;;19.96;66.40
19783;BME280;10051;40.294;-3.754;2023-06-14T01:54:53;93960.34;;;19.77;66.02
19783;BME280;10051;40.294;-3.754;2023-06-14T01:57:23;93983.91;;;20.03;65.71
19783;BME280;10051;40.294;-3.754;2023-06-14T01:59:50;93982.09;;;19.91;66.31
19783;BME280;10051;40.294;-3.754;2023-06-14T02:02:16;93995.25;;;20.00;65.90
19783;BME280;10051;40.294;-3.754;2023-06-14T02:04:44;93960.84;;;19.67;66.17
19783;BME280;10051;40.294;-3.754;2023-06-14T02:07:12;93987.00;;;19.77;66.67
19783;BME280;10051;40.294;-3.754;2023-06-14T02:09:38;93997.50;;;19.70;67.26
19783;BME280;10051;40.294;-3.754;2023-06-14T02:12:04;93891.69;;;19.01;67.28
19783;BME280;10051;40.294;-3.754;2023-06-14T02:14:30;94002.59;;;19.75;66.89
19783;BME280;10051;40.294;-3.754;2023-06-14T02:16:56;93978.91;;;19.57;66.91
19783;BME280;10051;40.294;-3.754;2023-06-14T02:19:22;93966.09;;;19.35;67.65
19783;BME280;10051;40.294;-3.754;2023-06-14T02:21:47;93992.53;;;19.27;68.66
19783;BME280;10051;40.294;-3.754;2023-06-14T02:24:13;93944.88;;;18.97;68.73
19783;BME280;10051;40.294;-3.754;2023-06-14T02:26:39;93921.38;;;18.75;69.18
19783;BME280;10051;40.294;-3.754;2023-06-14T02:29:05;94001.84;;;19.34;68.72
19783;BME280;10051;40.294;-3.754;2023-06-14T02:31:35;93955.28;;;18.90;69.21
19783;BME280;10051;40.294;-3.754;2023-06-14T02:34:01;93987.69;;;19.17;69.34
19783;BME280;10051;40.294;-3.754;2023-06-14T02:36:26;93973.16;;;19.14;68.80
19783;BME280;10051;40.294;-3.754;2023-06-14T02:38:52;93915.25;;;18.86;69.54
19783;BME280;10051;40.294;-3.754;2023-06-14T02:41:19;94009.13;;;19.49;69.76
19783;BME280;10051;40.294;-3.754;2023-06-14T02:43:45;93999.25;;;19.50;69.64
19783;BME280;10051;40.294;-3.754;2023-06-14T02:46:10;93894.06;;;18.78;70.05
19783;BME280;10051;40.294;-3.754;2023-06-14T02:48:36;94017.38;;;19.44;69.29
19783;BME280;10051;40.294;-3.754;2023-06-14T02:51:02;94000.75;;;19.22;70.25
19783;BME280;10051;40.294;-3.754;2023-06-14T02:53:31;94007.75;;;19.27;70.57
19783;BME280;10051;40.294;-3.754;2023-06-14T02:55:56;93943.53;;;18.91;70.30
19783;BME280;10051;40.294;-3.754;2023-06-14T02:58:22;93908.06;;;18.75;70.11
19783;BME280;10051;40.294;-3.754;2023-06-14T03:00:50;94013.56;;;19.57;69.25
19783;BME280;10051;40.294;-3.754;2023-06-14T03:03:18;93962.00;;;19.25;69.44
19783;BME280;10051;40.294;-3.754;2023-06-14T03:05:46;94015.44;;;19.57;69.80
19783;BME280;10051;40.294;-3.754;2023-06-14T03:08:16;94016.13;;;19.54;69.85
19783;BME280;10051;40.294;-3.754;2023-06-14T03:10:48;93975.22;;;19.21;71.39
19783;BME280;10051;40.294;-3.754;2023-06-14T03:13:15;94017.13;;;19.49;69.96
19783;BME280;10051;40.294;-3.754;2023-06-14T03:15:46;93978.22;;;19.32;68.35
19783;BME280;10051;40.294;-3.754;2023-06-14T03:18:12;93935.41;;;19.00;67.97
19783;BME280;10051;40.294;-3.754;2023-06-14T03:20:40;93988.88;;;19.32;68.15
19783;BME280;10051;40.294;-3.754;2023-06-14T03:23:06;93970.16;;;19.16;67.36
19783;BME280;10051;40.294;-3.754;2023-06-14T03:25:32;94004.16;;;19.07;69.95
19783;BME280;10051;40.294;-3.754;2023-06-14T03:28:04;94008.13;;;18.88;71.45
19783;BME280;10051;40.294;-3.754;2023-06-14T03:30:30;93985.19;;;18.58;73.25
19783;BME280;10051;40.294;-3.754;2023-06-14T03:32:56;94007.50;;;18.66;72.92
19783;BME280;10051;40.294;-3.754;2023-06-14T03:35:23;93984.41;;;18.70;72.84
19783;BME280;10051;40.294;-3.754;2023-06-14T03:37:48;93865.94;;;17.65;73.54
19783;BME280;10051;40.294;-3.754;2023-06-14T03:40:16;93961.53;;;18.07;74.46
19783;BME280;10051;40.294;-3.754;2023-06-14T03:42:42;94017.25;;;18.50;74.24
19783;BME280;10051;40.294;-3.754;2023-06-14T03:45:07;94016.91;;;18.64;73.27
19783;BME280;10051;40.294;-3.754;2023-06-14T03:47:34;93979.19;;;18.62;72.59
19783;BME280;10051;40.294;-3.754;2023-06-14T03:50:00;94006.47;;;18.83;72.71
19783;BME280;10051;40.294;-3.754;2023-06-14T03:52:26;93999.28;;;18.71;72.70
19783;BME280;10051;40.294;-3.754;2023-06-14T03:54:52;94010.69;;;18.72;73.78
19783;BME280;10051;40.294;-3.754;2023-06-14T03:57:19;94006.16;;;18.72;73.50
19783;BME280;10051;40.294;-3.754;2023-06-14T03:59:45;93972.44;;;18.52;73.79
19783;BME280;10051;40.294;-3.754;2023-06-14T04:02:12;94003.50;;;18.72;73.04
19783;BME280;10051;40.294;-3.754;2023-06-14T04:04:40;94026.31;;;18.86;72.84
19783;BME280;10051;40.294;-3.754;2023-06-14T04:07:10;93916.31;;;18.20;73.04
19783;BME280;10051;40.294;-3.754;2023-06-14T04:09:37;93983.97;;;18.68;72.77
19783;BME280;10051;40.294;-3.754;2023-06-14T04:12:04;94020.34;;;18.89;73.32
19783;BME280;10051;40.294;-3.754;2023-06-14T04:14:29;93906.00;;;18.06;73.58
19783;BME280;10051;40.294;-3.754;2023-06-14T04:16:56;93986.63;;;18.56;73.41
19783;BME280;10051;40.294;-3.754;2023-06-14T04:19:22;94009.25;;;18.75;73.15
19783;BME280;10051;40.294;-3.754;2023-06-14T04:21:50;94033.22;;;18.87;72.97
19783;BME280;10051;40.294;-3.754;2023-06-14T04:24:16;94022.34;;;18.80;72.93
19783;BME280;10051;40.294;-3.754;2023-06-14T04:26:45;94018.81;;;18.76;72.71
19783;BME280;10051;40.294;-3.754;2023-06-14T04:29:13;94027.47;;;18.97;72.07
19783;BME280;10051;40.294;-3.754;2023-06-14T04:31:46;94019.22;;;18.90;71.92
19783;BME280;10051;40.294;-3.754;2023-06-14T04:34:12;93948.25;;;18.45;71.44
19783;BME280;10051;40.294;-3.754;2023-06-14T04:36:44;94035.56;;;19.01;71.82
19783;BME280;10051;40.294;-3.754;2023-06-14T04:39:15;94016.91;;;19.01;71.68
19783;BME280;10051;40.294;-3.754;2023-06-14T04:41:43;94036.56;;;18.96;71.67
19783;BME280;10051;40.294;-3.754;2023-06-14T04:44:08;94016.34;;;18.83;71.63
19783;BME280;10051;40.294;-3.754;2023-06-14T04:46:35;94020.56;;;18.84;72.65
19783;BME280;10051;40.294;-3.754;2023-06-14T04:49:15;94051.31;;;18.94;73.65
19783;BME280;10051;40.294;-3.754;2023-06-14T04:51:44;94055.41;;;18.91;73.88
19783;BME280;10051;40.294;-3.754;2023-06-14T04:54:11;93968.66;;;18.28;73.69
19783;BME280;10051;40.294;-3.754;2023-06-14T04:56:43;94051.41;;;18.85;73.58
19783;BME280;10051;40.294;-3.754;2023-06-14T04:59:09;94017.47;;;18.69;73.38
19783;BME280;10051;40.294;-3.754;2023-06-14T05:01:36;93961.56;;;18.32;73.46
19783;BME280;10051;40.294;-3.754;2023-06-14T05:04:03;94046.22;;;18.88;74.00
19783;BME280;10051;40.294;-3.754;2023-06-14T05:06:29;93974.09;;;18.32;73.86
19783;BME280;10051;40.294;-3.754;2023-06-14T05:08:55;93996.38;;;18.52;74.03
19783;BME280;10051;40.294;-3.754;2023-06-14T05:11:21;94002.81;;;18.63;72.91
19783;BME280;10051;40.294;-3.754;2023-06-14T05:13:49;94039.44;;;18.91;71.42
19783;BME280;10051;40.294;-3.754;2023-06-14T05:16:16;94067.31;;;19.06;72.24
19783;BME280;10051;40.294;-3.754;2023-06-14T05:18:44;94023.34;;;18.38;72.21
19783;BME280;10051;40.294;-3.754;2023-06-14T05:21:11;94080.69;;;18.60;73.20
19783;BME280;10051;40.294;-3.754;2023-06-14T05:23:36;94039.16;;;18.34;73.23
19783;BME280;10051;40.294;-3.754;2023-06-14T05:26:02;94036.44;;;18.43;73.66
19783;BME280;10051;40.294;-3.754;2023-06-14T05:28:31;94042.50;;;18.43;74.24
19783;BME280;10051;40.294;-3.754;2023-06-14T05:30:57;94083.84;;;18.75;73.16
19783;BME280;10051;40.294;-3.754;2023-06-14T05:33:23;94065.72;;;18.55;74.60
19783;BME280;10051;40.294;-3.754;2023-06-14T05:35:49;94065.81;;;18.47;75.59
19783;BME280;10051;40.294;-3.754;2023-06-14T05:38:15;94054.31;;;18.67;75.63
19783;BME280;10051;40.294;-3.754;2023-06-14T05:40:40;94075.16;;;19.40;71.97
19783;BME280;10051;40.294;-3.754;2023-06-14T05:43:06;94013.91;;;19.02;71.38
19783;BME280;10051;40.294;-3.754;2023-06-14T05:45:32;94026.78;;;18.88;72.40
19783;BME280;10051;40.294;-3.754;2023-06-14T05:47:57;94072.72;;;19.35;71.90
19783;BME280;10051;40.294;-3.754;2023-06-14T05:50:23;94060.69;;;19.41;70.50
19783;BME280;10051;40.294;-3.754;2023-06-14T05:52:51;94041.75;;;19.17;70.94
19783;BME280;10051;40.294;-3.754;2023-06-14T05:55:17;94095.34;;;19.53;70.65
19783;BME280;10051;40.294;-3.754;2023-06-14T05:57:42;94095.13;;;19.46;70.61
19783;BME280;10051;40.294;-3.754;2023-06-14T06:00:09;94037.13;;;19.55;68.49
19783;BME280;10051;40.294;-3.754;2023-06-14T06:02:40;94082.00;;;20.23;66.79
19783;BME280;10051;40.294;-3.754;2023-06-14T06:05:11;94092.72;;;20.55;66.03
19783;BME280;10051;40.294;-3.754;2023-06-14T06:07:38;94080.22;;;20.59;63.99
19783;BME280;10051;40.294;-3.754;2023-06-14T06:10:06;94076.97;;;20.65;62.24
19783;BME280;10051;40.294;-3.754;2023-06-14T06:12:32;94112.91;;;21.00;61.15
19783;BME280;10051;40.294;-3.754;2023-06-14T06:14:58;94108.44;;;21.04;60.88
19783;BME280;10051;40.294;-3.754;2023-06-14T06:17:25;94086.81;;;20.77;59.97
19783;BME280;10051;40.294;-3.754;2023-06-14T06:19:50;94113.69;;;21.01;59.84
19783;BME280;10051;40.294;-3.754;2023-06-14T06:22:16;94092.31;;;20.69;59.30
19783;BME280;10051;40.294;-3.754;2023-06-14T06:24:42;94057.56;;;20.36;60.96
19783;BME280;10051;40.294;-3.754;2023-06-14T06:27:08;94078.84;;;20.49;61.56
19783;BME280;10051;40.294;-3.754;2023-06-14T06:29:34;94112.44;;;20.66;61.67
19783;BME280;10051;40.294;-3.754;2023-06-14T06:32:00;94129.97;;;20.63;62.02
19783;BME280;10051;40.294;-3.754;2023-06-14T06:34:26;94101.06;;;20.37;61.90
19783;BME280;10051;40.294;-3.754;2023-06-14T06:36:51;94117.28;;;20.44;61.55
19783;BME280;10051;40.294;-3.754;2023-06-14T06:39:17;94094.00;;;20.45;61.90
19783;BME280;10051;40.294;-3.754;2023-06-14T06:41:42;94137.41;;;20.86;61.48
19783;BME280;10051;40.294;-3.754;2023-06-14T06:44:08;94091.16;;;20.54;60.00
19783;BME280;10051;40.294;-3.754;2023-06-14T06:46:36;94118.22;;;20.68;61.06
19783;BME280;10051;40.294;-3.754;2023-06-14T06:49:05;94136.19;;;20.84;61.06
19783;BME280;10051;40.294;-3.754;2023-06-14T06:51:31;94081.25;;;20.54;60.36
19783;BME280;10051;40.294;-3.754;2023-06-14T06:53:58;94133.09;;;20.82;60.06
19783;BME280;10051;40.294;-3.754;2023-06-14T06:56:24;94163.09;;;20.91;60.68
19783;BME280;10051;40.294;-3.754;2023-06-14T06:58:50;94119.41;;;20.55;61.83
19783;BME280;10051;40.294;-3.754;2023-06-14T07:01:18;94148.91;;;20.74;60.67
19783;BME280;10051;40.294;-3.754;2023-06-14T07:03:45;94142.44;;;20.75;61.20
19783;BME280;10051;40.294;-3.754;2023-06-14T07:06:12;94179.66;;;20.97;59.73
19783;BME280;10051;40.294;-3.754;2023-06-14T07:08:37;94169.66;;;21.09;60.06
19783;BME280;10051;40.294;-3.754;2023-06-14T07:11:06;94140.66;;;21.12;58.53
19783;BME280;10051;40.294;-3.754;2023-06-14T07:13:32;94163.25;;;21.30;57.89
19783;BME280;10051;40.294;-3.754;2023-06-14T07:15:59;94165.41;;;21.41;57.76
19783;BME280;10051;40.294;-3.754;2023-06-14T07:18:26;94182.63;;;21.59;57.40
19783;BME280;10051;40.294;-3.754;2023-06-14T07:20:52;94151.66;;;21.58;56.93
19783;BME280;10051;40.294;-3.754;2023-06-14T07:23:22;94138.78;;;21.64;56.64
19783;BME280;10051;40.294;-3.754;2023-06-14T07:25:47;94080.88;;;21.36;55.27
19783;BME280;10051;40.294;-3.754;2023-06-14T07:28:13;94116.53;;;21.60;55.32
19783;BME280;10051;40.294;-3.754;2023-06-14T07:30:39;94143.34;;;21.79;54.76
19783;BME280;10051;40.294;-3.754;2023-06-14T07:33:05;94185.63;;;22.09;55.12
19783;BME280;10051;40.294;-3.754;2023-06-14T07:35:31;94115.94;;;21.66;54.80
19783;BME280;10051;40.294;-3.754;2023-06-14T07:37:56;94159.84;;;22.01;55.05
19783;BME280;10051;40.294;-3.754;2023-06-14T07:40:22;94099.81;;;21.63;55.03
19783;BME280;10051;40.294;-3.754;2023-06-14T07:42:48;94162.72;;;22.12;54.79
19783;BME280;10051;40.294;-3.754;2023-06-14T07:45:15;94149.75;;;22.14;53.66
19783;BME280;10051;40.294;-3.754;2023-06-14T07:47:41;94160.75;;;22.28;52.44
19783;BME280;10051;40.294;-3.754;2023-06-14T07:50:07;94184.88;;;22.48;52.56
19783;BME280;10051;40.294;-3.754;2023-06-14T07:52:33;94124.53;;;22.15;51.98
19783;BME280;10051;40.294;-3.754;2023-06-14T07:54:58;94101.44;;;22.07;52.28
19783;BME280;10051;40.294;-3.754;2023-06-14T07:57:24;94170.91;;;22.58;52.04
19783;BME280;10051;40.294;-3.754;2023-06-14T07:59:50;94130.97;;;22.50;51.18
19783;BME280;10051;40.294;-3.754;2023-06-14T08:02:16;94167.13;;;22.83;50.33
19783;BME280;10051;40.294;-3.754;2023-06-14T08:04:41;94160.38;;;22.93;49.90
19783;BME280;10051;40.294;-3.754;2023-06-14T08:07:07;94136.44;;;22.80;50.93
19783;BME280;10051;40.294;-3.754;2023-06-14T08:09:33;94158.41;;;23.13;49.70
19783;BME280;10051;40.294;-3.754;2023-06-14T08:11:59;94173.06;;;23.19;49.17
19783;BME280;10051;40.294;-3.754;2023-06-14T08:14:25;94162.84;;;23.25;49.25
19783;BME280;10051;40.294;-3.754;2023-06-14T08:16:51;94179.56;;;23.41;48.77
19783;BME280;10051;40.294;-3.754;2023-06-14T08:19:16;94100.75;;;22.99;47.88
19783;BME280;10051;40.294;-3.754;2023-06-14T08:21:43;94120.47;;;23.11;47.33
19783;BME280;10051;40.294;-3.754;2023-06-14T08:24:10;94098.78;;;22.96;47.64
19783;BME280;10051;40.294;-3.754;2023-06-14T08:26:38;94165.59;;;23.28;47.36
19783;BME280;10051;40.294;-3.754;2023-06-14T08:29:04;94184.47;;;23.36;47.19
19783;BME280;10051;40.294;-3.754;2023-06-14T08:31:32;94139.66;;;23.13;47.46
19783;BME280;10051;40.294;-3.754;2023-06-14T08:33:58;94220.03;;;23.83;47.02
19783;BME280;10051;40.294;-3.754;2023-06-14T08:36:24;94181.59;;;23.75;46.22
19783;BME280;10051;40.294;-3.754;2023-06-14T08:38:49;94192.56;;;23.93;45.22
19783;BME280;10051;40.294;-3.754;2023-06-14T08:41:21;94220.66;;;24.26;45.57
19783;BME280;10051;40.294;-3.754;2023-06-14T08:43:47;94145.78;;;23.94;45.27
19783;BME280;10051;40.294;-3.754;2023-06-14T08:46:14;94218.47;;;24.35;45.62
19783;BME280;10051;40.294;-3.754;2023-06-14T08:48:46;94189.84;;;24.16;45.59
19783;BME280;10051;40.294;-3.754;2023-06-14T08:51:13;94190.97;;;24.15;44.74
19783;BME280;10051;40.294;-3.754;2023-06-14T08:53:42;94216.00;;;24.23;45.40
19783;BME280;10051;40.294;-3.754;2023-06-14T08:56:30;94221.66;;;24.45;44.80
19783;BME280;10051;40.294;-3.754;2023-06-14T08:58:58;94213.00;;;24.62;43.81
19783;BME280;10051;40.294;-3.754;2023-06-14T09:01:28;94191.81;;;24.57;43.65
19783;BME280;10051;40.294;-3.754;2023-06-14T09:03:54;94161.13;;;24.58;43.79
19783;BME280;10051;40.294;-3.754;2023-06-14T09:06:23;94203.97;;;24.78;43.29
19783;BME280;10051;40.294;-3.754;2023-06-14T09:08:50;94212.94;;;24.89;42.62
19783;BME280;10051;40.294;-3.754;2023-06-14T09:11:18;94208.22;;;24.79;43.17
19783;BME280;10051;40.294;-3.754;2023-06-14T09:13:45;94107.66;;;24.12;43.80
19783;BME280;10051;40.294;-3.754;2023-06-14T09:16:12;94206.91;;;25.03;43.76
19783;BME280;10051;40.294;-3.754;2023-06-14T09:18:42;94203.09;;;25.04;43.07
19783;BME280;10051;40.294;-3.754;2023-06-14T09:21:14;94215.94;;;25.26;41.96
19783;BME280;10051;40.294;-3.754;2023-06-14T09:23:42;94183.06;;;25.02;41.41
19783;BME280;10051;40.294;-3.754;2023-06-14T09:26:16;94144.41;;;24.72;42.29
19783;BME280;10051;40.294;-3.754;2023-06-14T09:28:43;94168.09;;;24.63;42.29
19783;BME280;10051;40.294;-3.754;2023-06-14T09:31:14;94222.25;;;25.03;42.27
19783;BME280;10051;40.294;-3.754;2023-06-14T09:33:44;94185.75;;;25.02;42.46
19783;BME280;10051;40.294;-3.754;2023-06-14T09:36:18;94220.66;;;25.36;41.99
19783;BME280;10051;40.294;-3.754;2023-06-14T09:38:59;94120.66;;;24.82;41.96
19783;BME280;10051;40.294;-3.754;2023-06-14T09:41:38;94211.81;;;25.39;41.60
19783;BME280;10051;40.294;-3.754;2023-06-14T09:44:06;94196.78;;;25.31;41.88
19783;BME280;10051;40.294;-3.754;2023-06-14T09:46:33;94212.31;;;25.48;41.30
19783;BME280;10051;40.294;-3.754;2023-06-14T09:49:00;94200.72;;;25.44;41.93
19783;BME280;10051;40.294;-3.754;2023-06-14T09:51:29;94162.81;;;25.15;41.33
19783;BME280;10051;40.294;-3.754;2023-06-14T09:54:00;94166.38;;;25.27;41.91
19783;BME280;10051;40.294;-3.754;2023-06-14T09:56:34;94206.28;;;25.66;41.55
19783;BME280;10051;40.294;-3.754;2023-06-14T09:59:05;94213.34;;;25.89;41.45
19783;BME280;10051;40.294;-3.754;2023-06-14T10:01:35;94192.19;;;25.91;40.54
19783;BME280;10051;40.294;-3.754;2023-06-14T10:04:10;94210.69;;;25.92;41.57
19783;BME280;10051;40.294;-3.754;2023-06-14T10:06:37;94224.56;;;25.98;39.76
19783;BME280;10051;40.294;-3.754;2023-06-14T10:09:09;94196.72;;;25.72;40.02
19783;BME280;10051;40.294;-3.754;2023-06-14T10:11:36;94177.88;;;25.72;40.49
19783;BME280;10051;40.294;-3.754;2023-06-14T10:14:04;94216.00;;;25.81;40.18
19783;BME280;10051;40.294;-3.754;2023-06-14T10:19:13;94213.78;;;25.98;40.09
19783;BME280;10051;40.294;-3.754;2023-06-14T10:24:40;94217.03;;;26.29;40.09
19783;BME280;10051;40.294;-3.754;2023-06-14T10:27:07;94214.78;;;26.38;39.17
19783;BME280;10051;40.294;-3.754;2023-06-14T10:32:23;94070.38;;;25.38;40.04
19783;BME280;10051;40.294;-3.754;2023-06-14T10:35:01;94157.84;;;25.66;40.14
19783;BME280;10051;40.294;-3.754;2023-06-14T10:37:29;94199.06;;;25.81;39.79
19783;BME280;10051;40.294;-3.754;2023-06-14T10:39:55;94127.25;;;25.40;40.04
19783;BME280;10051;40.294;-3.754;2023-06-14T10:42:21;94169.47;;;25.84;39.56
19783;BME280;10051;40.294;-3.754;2023-06-14T10:44:55;94215.88;;;26.30;39.01
19783;BME280;10051;40.294;-3.754;2023-06-14T10:47:35;94217.44;;;26.31;38.42
19783;BME280;10051;40.294;-3.754;2023-06-14T10:50:08;94184.69;;;26.25;38.40
19783;BME280;10051;40.294;-3.754;2023-06-14T10:52:37;94211.78;;;26.62;37.97
19783;BME280;10051;40.294;-3.754;2023-06-14T10:55:06;94116.84;;;26.09;38.32
19783;BME280;10051;40.294;-3.754;2023-06-14T10:57:33;94215.66;;;26.64;38.28
19783;BME280;10051;40.294;-3.754;2023-06-14T11:00:00;94211.41;;;26.63;39.04
19783;BME280;10051;40.294;-3.754;2023-06-14T11:05:14;94141.94;;;26.17;39.02
19783;BME280;10051;40.294;-3.754;2023-06-14T11:10:39;94156.25;;;26.35;40.05
19783;BME280;10051;40.294;-3.754;2023-06-14T11:13:08;94152.00;;;26.34;40.47
19783;BME280;10051;40.294;-3.754;2023-06-14T11:15:36;94148.53;;;26.23;40.42
19783;BME280;10051;40.294;-3.754;2023-06-14T11:18:04;94188.25;;;26.48;40.10
19783;BME280;10051;40.294;-3.754;2023-06-14T11:20:32;94160.00;;;26.12;39.09
19783;BME280;10051;40.294;-3.754;2023-06-14T11:22:58;94188.53;;;26.28;39.22
19783;BME280;10051;40.294;-3.754;2023-06-14T11:25:24;94181.97;;;26.18;39.28
19783;BME280;10051;40.294;-3.754;2023-06-14T11:27:51;94186.16;;;26.12;40.04
19783;BME280;10051;40.294;-3.754;2023-06-14T11:30:18;94148.78;;;26.07;40.57
19783;BME280;10051;40.294;-3.754;2023-06-14T11:32:48;94185.91;;;26.42;40.44
19783;BME280;10051;40.294;-3.754;2023-06-14T11:35:14;94180.94;;;26.48;39.32
19783;BME280;10051;40.294;-3.754;2023-06-14T11:37:41;94195.94;;;26.42;39.81
19783;BME280;10051;40.294;-3.754;2023-06-14T11:40:08;94182.09;;;26.51;40.25
19783;BME280;10051;40.294;-3.754;2023-06-14T11:42:36;94157.75;;;26.29;40.58
19783;BME280;10051;40.294;-3.754;2023-06-14T11:45:03;94187.88;;;26.53;40.77
19783;BME280;10051;40.294;-3.754;2023-06-14T11:47:34;94109.91;;;26.01;38.85
19783;BME280;10051;40.294;-3.754;2023-06-14T11:50:00;94174.00;;;26.47;38.95
19783;BME280;10051;40.294;-3.754;2023-06-14T11:52:26;94136.94;;;26.15;38.80
19783;BME280;10051;40.294;-3.754;2023-06-14T11:54:53;94177.09;;;26.49;39.58
19783;BME280;10051;40.294;-3.754;2023-06-14T11:57:18;94137.78;;;26.37;40.62
19783;BME280;10051;40.294;-3.754;2023-06-14T11:59:45;94134.31;;;26.40;39.83
19783;BME280;10051;40.294;-3.754;2023-06-14T12:02:14;94188.00;;;26.96;39.18
19783;BME280;10051;40.294;-3.754;2023-06-14T12:04:43;94181.84;;;27.07;39.60
19783;BME280;10051;40.294;-3.754;2023-06-14T12:07:13;94185.34;;;27.11;39.33
19783;BME280;10051;40.294;-3.754;2023-06-14T12:12:28;94178.78;;;27.05;39.54
19783;BME280;10051;40.294;-3.754;2023-06-14T12:14:57;94106.22;;;26.49;39.47
19783;BME280;10051;40.294;-3.754;2023-06-14T12:17:23;94114.75;;;26.65;39.58
19783;BME280;10051;40.294;-3.754;2023-06-14T12:19:49;94056.91;;;26.37;39.29
19783;BME280;10051;40.294;-3.754;2023-06-14T12:22:16;94078.53;;;26.48;39.12
19783;BME280;10051;40.294;-3.754;2023-06-14T12:24:45;94118.97;;;26.77;38.63
19783;BME280;10051;40.294;-3.754;2023-06-14T12:27:12;94174.91;;;27.06;37.91
19783;BME280;10051;40.294;-3.754;2023-06-14T12:29:44;94112.41;;;26.60;37.96
19783;BME280;10051;40.294;-3.754;2023-06-14T12:32:10;94137.09;;;26.73;38.56
19783;BME280;10051;40.294;-3.754;2023-06-14T12:34:36;94110.09;;;26.55;39.34
19783;BME280;10051;40.294;-3.754;2023-06-14T12:37:02;94166.03;;;26.98;39.61
19783;BME280;10051;40.294;-3.754;2023-06-14T12:39:30;94143.25;;;26.81;39.09
19783;BME280;10051;40.294;-3.754;2023-06-14T12:41:58;94181.81;;;26.96;40.27
19783;BME280;10051;40.294;-3.754;2023-06-14T12:44:26;94171.03;;;26.92;40.67
19783;BME280;10051;40.294;-3.754;2023-06-14T12:46:52;94163.34;;;26.83;40.60
19783;BME280;10051;40.294;-3.754;2023-06-14T12:49:19;94174.13;;;26.87;40.46
19783;BME280;10051;40.294;-3.754;2023-06-14T12:51:45;94160.25;;;26.89;40.22
19783;BME280;10051;40.294;-3.754;2023-06-14T12:54:10;94145.19;;;26.80;40.20
19783;BME280;10051;40.294;-3.754;2023-06-14T12:56:37;94171.06;;;26.99;40.19
19783;BME280;10051;40.294;-3.754;2023-06-14T12:59:03;94150.59;;;26.84;39.77
19783;BME280;10051;40.294;-3.754;2023-06-14T13:01:28;94119.34;;;26.65;39.85
19783;BME280;10051;40.294;-3.754;2023-06-14T13:03:56;94078.88;;;26.39;39.80
19783;BME280;10051;40.294;-3.754;2023-06-14T13:06:22;94103.19;;;26.61;39.28
19783;BME280;10051;40.294;-3.754;2023-06-14T13:08:48;94161.44;;;27.13;39.59
19783;BME280;10051;40.294;-3.754;2023-06-14T13:11:14;94161.81;;;27.19;40.13